Time;durP1;ratioP1;P1;durP2;ratioP2;P2;SDS_P1;SDS_P2;PMS_P1;PMS_P2;Temp;Humidity;BMP_temperature;BMP_pressure;BME280_temperature;BME280_humidity;BME280_pressure;Samples;Min_cycle;Max_cycle;Signal;HPM_P1;HPM_P2
2023/11/04 00:00:15;;;;;;;;;;;;;;;11.44;100.00;97313.59;5012479;28;20020;-89
2023/11/04 00:02:40;;;;;;;;;;;;;;;11.84;100.00;97301.34;4995631;28;20161;-87
2023/11/04 00:05:07;;;;;;;;;;;;;;;11.56;100.00;97301.91;5013368;28;20427;-84
2023/11/04 00:07:32;;;;;;;;;;;;;;;11.99;100.00;97302.69;4998750;28;19925;-90
2023/11/04 00:09:57;;;;;;;;;;;;;;;13.32;100.00;97282.72;4996703;28;19918;-85
2023/11/04 00:12:22;;;;;;;;;;;;;;;13.85;100.00;97270.66;5013582;28;19932;-86
2023/11/04 00:14:48;;;;;;;;;;;;;;;13.42;100.00;97267.63;4995048;28;20411;-88
2023/11/04 00:17:15;;;;;;;;;;;;;;;14.05;100.00;97266.06;4996811;28;19921;-87
2023/11/04 00:19:40;;;;;;;;;;;;;;;13.56;100.00;97261.84;5012226;28;19996;-88
2023/11/04 00:22:06;;;;;;;;;;;;;;;14.08;100.00;97263.94;4996754;28;20448;-91
2023/11/04 00:24:32;;;;;;;;;;;;;;;13.54;100.00;97263.78;4994966;28;20004;-88
2023/11/04 00:27:00;;;;;;;;;;;;;;;12.09;100.00;97271.69;5020287;28;19922;-88
2023/11/04 00:29:28;;;;;;;;;;;;;;;11.49;100.00;97284.03;5006340;28;19960;-90
2023/11/04 00:31:56;;;;;;;;;;;;;;;11.35;100.00;97283.41;5012659;28;19921;-92
2023/11/04 00:34:21;;;;;;;;;;;;;;;11.35;100.00;97293.19;5018641;28;20341;-87
2023/11/04 00:36:46;;;;;;;;;;;;;;;11.32;100.00;97283.66;5021163;28;19925;-89
2023/11/04 00:39:14;;;;;;;;;;;;;;;11.49;100.00;97294.63;5020820;28;19918;-82
2023/11/04 00:41:39;;;;;;;;;;;;;;;11.42;100.00;97296.97;5013927;28;19940;-89
2023/11/04 00:44:05;;;;;;;;;;;;;;;11.60;100.00;97292.75;4996946;28;20365;-87
2023/11/04 00:46:31;;;;;;;;;;;;;;;11.90;100.00;97282.22;4987358;28;19945;-92
2023/11/04 00:48:57;;;;;;;;;;;;;;;11.79;100.00;97281.38;4976226;28;20380;-88
2023/11/04 00:51:23;;;;;;;;;;;;;;;11.59;100.00;97295.53;4994013;28;19992;-86
2023/11/04 00:53:48;;;;;;;;;;;;;;;11.49;100.00;97290.19;4993623;28;20376;-86
2023/11/04 00:56:13;;;;;;;;;;;;;;;11.43;100.00;97290.72;4994073;28;20044;-88
2023/11/04 00:58:39;;;;;;;;;;;;;;;11.42;100.00;97292.53;4994907;28;19918;-89
2023/11/04 01:01:06;;;;;;;;;;;;;;;12.64;100.00;97292.47;4975637;28;19972;-85
2023/11/04 01:03:32;;;;;;;;;;;;;;;13.57;100.00;97267.97;4976915;28;19918;-90
2023/11/04 01:05:57;;;;;;;;;;;;;;;13.10;100.00;97260.81;4994542;28;20343;-87
2023/11/04 01:08:22;;;;;;;;;;;;;;;12.49;100.00;97265.47;4995962;28;19913;-89
2023/11/04 01:10:47;;;;;;;;;;;;;;;12.22;100.00;97267.94;4977006;28;19917;-91
2023/11/04 01:13:15;;;;;;;;;;;;;;;12.41;100.00;97270.63;4965950;28;19922;-90
2023/11/04 01:15:44;;;;;;;;;;;;;;;12.41;100.00;97273.28;4977932;28;19913;-96
2023/11/04 01:18:09;;;;;;;;;;;;;;;11.88;100.00;97278.88;4991691;28;19932;-90
2023/11/04 01:20:35;;;;;;;;;;;;;;;11.71;100.00;97277.69;4993215;28;19918;-90
2023/11/04 01:23:00;;;;;;;;;;;;;;;11.27;100.00;97285.88;4993494;28;19969;-90
2023/11/04 01:25:25;;;;;;;;;;;;;;;9.89;100.00;97277.75;4993431;28;20404;-85
2023/11/04 01:27:50;;;;;;;;;;;;;;;8.95;100.00;97266.56;4976804;28;19976;-91
2023/11/04 01:30:16;;;;;;;;;;;;;;;8.44;100.00;97273.00;4990174;28;19937;-85
2023/11/04 06:24:22;;;;;;;;;;;;;;;8.46;100.00;96908.72;4968682;28;19972;-88
2023/11/04 06:26:48;;;;;;;;;;;;;;;8.43;100.00;96907.16;4973238;28;20381;-85
2023/11/04 06:29:13;;;;;;;;;;;;;;;8.48;100.00;96899.72;4973452;28;20264;-85
2023/11/04 06:31:38;;;;;;;;;;;;;;;8.46;100.00;96906.91;4972029;28;20392;-86
2023/11/04 06:34:04;;;;;;;;;;;;;;;8.49;100.00;96901.41;4973103;28;20009;-85
2023/11/04 06:36:32;;;;;;;;;;;;;;;8.54;100.00;96895.75;4972286;28;19922;-89
2023/11/04 06:38:57;;;;;;;;;;;;;;;8.58;100.00;96897.16;4973264;28;19922;-86
2023/11/04 06:41:23;;;;;;;;;;;;;;;8.64;100.00;96888.75;4973138;28;19922;-86
2023/11/04 06:43:50;;;;;;;;;;;;;;;8.63;100.00;96879.19;4973304;28;19918;-89
2023/11/04 06:46:15;;;;;;;;;;;;;;;8.65;100.00;96871.13;4973113;28;20005;-87
2023/11/04 06:48:41;;;;;;;;;;;;;;;8.69;100.00;96867.25;4973250;28;20472;-86
2023/11/04 06:51:06;;;;;;;;;;;;;;;8.68;100.00;96855.03;4973072;28;20455;-85
2023/11/04 06:53:32;;;;;;;;;;;;;;;8.69;100.00;96851.44;4971849;28;19970;-85
2023/11/04 06:55:58;;;;;;;;;;;;;;;8.74;100.00;96846.59;4973036;28;20388;-86
2023/11/04 06:58:26;;;;;;;;;;;;;;;8.74;100.00;96838.69;4973031;28;20376;-87
2023/11/04 07:00:51;;;;;;;;;;;;;;;8.78;100.00;96852.50;4973004;28;19923;-86
2023/11/04 07:03:16;;;;;;;;;;;;;;;8.80;100.00;96859.31;4976789;28;20008;-85
2023/11/04 07:05:44;;;;;;;;;;;;;;;8.81;100.00;96860.16;4977162;28;19929;-86
2023/11/04 07:08:10;;;;;;;;;;;;;;;8.84;100.00;96863.38;4975745;28;20008;-86
2023/11/04 07:10:37;;;;;;;;;;;;;;;7.91;100.00;96867.25;4976813;28;20150;-86
2023/11/04 07:13:07;;;;;;;;;;;;;;;7.05;100.00;96864.16;4976290;28;19922;-89
2023/11/04 07:15:37;;;;;;;;;;;;;;;6.68;100.00;96866.84;4975407;28;19921;-91
2023/11/04 07:18:07;;;;;;;;;;;;;;;6.55;100.00;96858.19;4976046;28;19924;-89
2023/11/04 07:20:34;;;;;;;;;;;;;;;6.51;100.00;96856.72;4976009;28;19950;-87
2023/11/04 07:22:59;;;;;;;;;;;;;;;6.36;100.00;96850.78;4975152;28;19922;-88
2023/11/04 07:25:24;;;;;;;;;;;;;;;6.20;100.00;96858.13;4957704;28;19926;-90
2023/11/04 07:27:49;;;;;;;;;;;;;;;6.14;100.00;96859.38;4957820;28;19969;-90
2023/11/04 07:30:20;;;;;;;;;;;;;;;6.08;100.00;96859.81;4975210;28;19968;-89
2023/11/04 07:32:45;;;;;;;;;;;;;;;6.00;100.00;96858.59;4982897;28;19929;-86
2023/11/04 07:35:14;;;;;;;;;;;;;;;5.91;100.00;96859.19;4976710;28;19922;-92
2023/11/04 07:37:50;;;;;;;;;;;;;;;5.85;100.00;96864.88;4974715;28;20288;-91
2023/11/04 07:40:23;;;;;;;;;;;;;;;5.89;100.00;96857.63;4982536;28;19929;-91
2023/11/04 07:42:49;;;;;;;;;;;;;;;5.95;100.00;96851.94;4958377;28;19973;-89
2023/11/04 07:45:14;;;;;;;;;;;;;;;5.66;100.00;96849.56;4976286;28;19926;-88
2023/11/04 07:47:42;;;;;;;;;;;;;;;5.74;100.00;96841.97;4958606;28;20044;-89
2023/11/04 07:50:08;;;;;;;;;;;;;;;5.58;100.00;96831.69;4976096;28;19988;-88
2023/11/04 07:52:34;;;;;;;;;;;;;;;5.62;100.00;96832.34;4973368;28;20365;-89
2023/11/04 07:55:04;;;;;;;;;;;;;;;5.58;100.00;96836.97;4974630;28;19958;-90
2023/11/04 07:57:39;;;;;;;;;;;;;;;;;;;;;
2023/11/04 08:00:10;;;;;;;;;;;;;;;5.40;100.00;96828.56;4975200;28;19924;-89
2023/11/04 08:02:36;;;;;;;;;;;;;;;5.48;100.00;96822.78;4975836;28;20377;-89
2023/11/04 08:05:12;;;;;;;;;;;;;;;;;;;;;
2023/11/04 08:56:51;;;;;;;;;;;;;;;8.57;100.00;96712.53;4998906;28;20022;-85
2023/11/04 08:59:19;;;;;;;;;;;;;;;8.68;100.00;96692.22;5004637;28;19965;-87
2023/11/04 09:01:48;;;;;;;;;;;;;;;8.71;100.00;96689.31;5004028;28;20307;-87
2023/11/04 09:04:13;;;;;;;;;;;;;;;8.73;100.00;96671.53;5004194;28;19917;-87
2023/11/04 09:06:38;;;;;;;;;;;;;;;8.77;100.00;96672.13;5003375;28;19917;-88
2023/11/04 09:09:07;;;;;;;;;;;;;;;8.82;100.00;96656.75;4986442;28;20020;-87
2023/11/04 09:11:32;;;;;;;;;;;;;;;8.85;100.00;96651.16;5003145;28;19922;-85
2023/11/04 09:13:58;;;;;;;;;;;;;;;8.87;100.00;96641.34;5004006;28;19972;-87
2023/11/04 09:16:27;;;;;;;;;;;;;;;8.34;100.00;96649.31;5004193;28;19918;-92
2023/11/04 09:18:55;;;;;;;;;;;;;;;7.04;100.00;96645.75;5002660;28;19922;-90
2023/11/04 09:21:21;;;;;;;;;;;;;;;6.88;100.00;96641.66;5003531;28;19952;-88
2023/11/04 09:23:46;;;;;;;;;;;;;;;6.58;100.00;96641.41;5003489;28;19922;-88
2023/11/04 09:26:11;;;;;;;;;;;;;;;6.40;100.00;96633.97;5001720;28;19928;-88
2023/11/04 09:28:36;;;;;;;;;;;;;;;6.27;100.00;96639.31;4985623;28;20344;-87
2023/11/04 09:31:02;;;;;;;;;;;;;;;6.25;100.00;96638.59;5004134;28;19976;-89
2023/11/04 09:33:27;;;;;;;;;;;;;;;6.18;100.00;96642.66;5003347;28;19964;-87
2023/11/04 09:35:53;;;;;;;;;;;;;;;6.22;100.00;96638.81;5003117;28;19921;-86
2023/11/04 09:38:18;;;;;;;;;;;;;;;5.95;100.00;96634.66;5003397;28;19971;-90
2023/11/04 09:40:44;;;;;;;;;;;;;;;5.93;100.00;96618.13;4984296;28;19983;-88
2023/11/04 09:43:09;;;;;;;;;;;;;;;5.89;100.00;96616.72;5003217;28;19925;-87
2023/11/04 09:45:38;;;;;;;;;;;;;;;5.87;100.00;96599.38;5003022;28;19929;-92
2023/11/04 09:48:03;;;;;;;;;;;;;;;5.85;100.00;96596.84;5003008;28;19942;-87
2023/11/04 09:50:29;;;;;;;;;;;;;;;5.79;100.00;96592.91;5003098;28;19989;-85
2023/11/04 09:52:59;;;;;;;;;;;;;;;5.71;100.00;96586.53;5003338;28;19922;-85
2023/11/04 09:55:26;;;;;;;;;;;;;;;5.70;100.00;96579.63;5001341;28;20020;-83
2023/11/04 09:57:52;;;;;;;;;;;;;;;5.71;100.00;96568.16;5003617;28;20000;-84
2023/11/04 10:00:19;;;;;;;;;;;;;;;5.61;100.00;96568.81;5002811;28;20530;-86
2023/11/04 10:02:45;;;;;;;;;;;;;;;5.60;100.00;96566.31;5002666;28;19922;-87
2023/11/04 10:05:10;;;;;;;;;;;;;;;5.48;100.00;96554.94;5002929;28;19926;-90
2023/11/04 10:07:36;;;;;;;;;;;;;;;5.53;100.00;96554.59;5007453;28;19976;-91
2023/11/04 10:10:03;;;;;;;;;;;;;;;5.52;100.00;96556.41;5004546;28;19917;-87
2023/11/04 10:12:29;;;;;;;;;;;;;;;5.44;100.00;96542.97;5003542;28;19964;-87
2023/11/04 10:14:54;;;;;;;;;;;;;;;5.33;100.00;96521.91;4984895;28;19925;-86
2023/11/04 10:17:20;;;;;;;;;;;;;;;5.43;100.00;96517.66;5002558;28;19925;-86
2023/11/04 10:19:46;;;;;;;;;;;;;;;5.43;100.00;96518.50;5003011;28;19965;-87
2023/11/04 10:22:12;;;;;;;;;;;;;;;5.34;100.00;96497.34;5003045;28;19964;-88
2023/11/04 10:24:37;;;;;;;;;;;;;;;5.40;100.00;96502.16;5001583;28;19961;-89
2023/11/04 10:27:03;;;;;;;;;;;;;;;5.30;100.00;96503.75;5001108;28;19918;-89
2023/11/04 10:29:29;;;;;;;;;;;;;;;5.37;100.00;96507.63;4984898;28;19918;-90
2023/11/04 10:31:56;;;;;;;;;;;;;;;5.35;100.00;96499.03;5004466;28;19936;-90
2023/11/04 10:34:25;;;;;;;;;;;;;;;5.23;100.00;96490.25;5002580;28;19979;-90
2023/11/04 10:36:51;;;;;;;;;;;;;;;5.33;100.00;96482.53;5001799;28;20006;-89
2023/11/04 10:39:20;;;;;;;;;;;;;;;5.33;100.00;96472.03;5000907;28;19969;-90
2023/11/04 10:41:56;;;;;;;;;;;;;;;5.39;100.00;96455.81;5002650;28;20346;-91
2023/11/04 10:44:25;;;;;;;;;;;;;;;5.33;100.00;96461.53;5002588;28;19932;-90
2023/11/04 10:47:15;;;;;;;;;;;;;;;5.41;100.00;96454.75;5003199;28;19918;-90
2023/11/04 10:50:04;;;;;;;;;;;;;;;5.36;100.00;96449.03;5002203;28;20280;-87
2023/11/04 10:52:34;;;;;;;;;;;;;;;5.28;100.00;96439.09;4976877;28;19929;-88
2023/11/04 10:55:07;;;;;;;;;;;;;;;5.26;100.00;96433.13;5001188;28;19921;-90
2023/11/04 10:57:35;;;;;;;;;;;;;;;5.23;100.00;96417.63;5002196;28;19926;-91
2023/11/04 11:00:15;;;;;;;;;;;;;;;5.23;100.00;96404.50;5005135;28;19928;-92
2023/11/04 11:02:43;;;;;;;;;;;;;;;5.33;100.00;96396.75;4985124;28;19965;-87
2023/11/04 11:05:12;;;;;;;;;;;;;;;5.23;100.00;96386.13;4984893;28;19940;-85
2023/11/04 11:07:43;;;;;;;;;;;;;;;5.22;100.00;96368.69;5001808;28;20001;-89
2023/11/04 11:10:08;;;;;;;;;;;;;;;5.22;100.00;96366.06;4999410;28;20020;-87
2023/11/04 11:12:38;;;;;;;;;;;;;;;5.47;100.00;96351.03;5001915;28;20008;-91
2023/11/04 11:15:06;;;;;;;;;;;;;;;6.24;100.00;96331.94;5002269;28;20391;-90
2023/11/04 11:17:32;;;;;;;;;;;;;;;6.65;100.00;96321.63;4984564;28;19961;-88
2023/11/04 11:20:10;;;;;;;;;;;;;;;6.93;100.00;96328.09;5002301;28;19983;-90
2023/11/04 11:22:36;;;;;;;;;;;;;;;7.12;100.00;96323.94;5000487;28;19921;-89
2023/11/04 11:25:01;;;;;;;;;;;;;;;7.25;100.00;96320.13;5001070;28;19976;-87
2023/11/04 11:27:26;;;;;;;;;;;;;;;7.38;100.00;96317.28;5001993;28;19921;-87
2023/11/04 11:29:53;;;;;;;;;;;;;;;7.49;100.00;96310.28;5001670;28;19928;-89
2023/11/04 11:32:18;;;;;;;;;;;;;;;7.62;100.00;96303.81;5002492;28;19969;-90
2023/11/04 11:34:50;;;;;;;;;;;;;;;7.73;100.00;96291.53;5001690;28;19964;-89
2023/11/04 11:37:25;;;;;;;;;;;;;;;7.80;100.00;96282.94;5002069;28;20022;-91
2023/11/04 11:39:51;;;;;;;;;;;;;;;7.92;100.00;96280.22;5000319;28;19918;-90
2023/11/04 11:42:17;;;;;;;;;;;;;;;8.00;100.00;96268.00;5001723;28;19918;-88
2023/11/04 11:44:42;;;;;;;;;;;;;;;8.05;100.00;96264.97;4984179;28;19921;-89
2023/11/04 11:47:14;;;;;;;;;;;;;;;8.12;100.00;96255.56;5008102;28;19918;-89
2023/11/04 11:49:39;;;;;;;;;;;;;;;8.20;100.00;96246.97;5005003;28;19913;-91
2023/11/04 11:52:05;;;;;;;;;;;;;;;8.25;100.00;96244.75;5005035;28;19925;-89
2023/11/04 11:54:31;;;;;;;;;;;;;;;8.33;100.00;96225.59;5004230;28;19949;-90
2023/11/04 11:56:56;;;;;;;;;;;;;;;8.41;100.00;96240.72;5003809;28;19980;-91
2023/11/04 11:59:25;;;;;;;;;;;;;;;8.49;100.00;96231.16;4987530;28;19917;-89
2023/11/04 12:01:52;;;;;;;;;;;;;;;8.53;100.00;96232.53;4987879;28;20377;-90
2023/11/04 12:04:21;;;;;;;;;;;;;;;8.59;100.00;96219.78;4987322;28;19928;-91
2023/11/04 12:06:50;;;;;;;;;;;;;;;8.63;100.00;96213.22;5005069;28;20529;-90
2023/11/04 12:09:18;;;;;;;;;;;;;;;8.69;100.00;96210.84;5003892;28;19921;-90
2023/11/04 12:11:45;;;;;;;;;;;;;;;8.78;100.00;96190.72;5004796;28;19971;-88
2023/11/04 12:14:15;;;;;;;;;;;;;;;8.83;100.00;96199.03;5004719;28;19918;-86
2023/11/04 12:16:48;;;;;;;;;;;;;;;8.86;100.00;96184.72;4989259;28;19917;-91
2023/11/04 12:19:14;;;;;;;;;;;;;;;7.56;100.00;96183.16;4988115;28;19925;-88
2023/11/04 12:21:39;;;;;;;;;;;;;;;7.09;100.00;96167.88;4987074;28;19918;-89
2023/11/04 12:24:05;;;;;;;;;;;;;;;6.77;100.00;96162.75;5004263;28;19925;-86
2023/11/04 12:26:31;;;;;;;;;;;;;;;6.51;100.00;96157.91;5003484;28;19918;-88
2023/11/04 12:29:05;;;;;;;;;;;;;;;6.40;100.00;96155.34;5004813;28;19991;-90
2023/11/04 12:31:30;;;;;;;;;;;;;;;6.23;100.00;96148.03;5003202;28;20416;-90
2023/11/04 12:33:56;;;;;;;;;;;;;;;6.19;100.00;96134.31;5004217;28;20023;-87
2023/11/04 12:36:22;;;;;;;;;;;;;;;6.12;100.00;96125.25;4986865;28;19914;-87
2023/11/04 12:38:47;;;;;;;;;;;;;;;6.08;100.00;96124.69;5004690;28;20036;-88
2023/11/04 12:41:13;;;;;;;;;;;;;;;6.07;100.00;96122.19;5003080;28;20400;-90
2023/11/04 12:43:38;;;;;;;;;;;;;;;5.96;100.00;96123.88;5004477;28;19914;-90
2023/11/04 12:46:04;;;;;;;;;;;;;;;5.89;100.00;96125.34;4987000;28;19918;-88
2023/11/04 12:48:30;;;;;;;;;;;;;;;5.87;100.00;96116.75;5004823;28;19953;-88
2023/11/04 12:50:55;;;;;;;;;;;;;;;5.82;100.00;96108.38;5003825;28;19925;-90
2023/11/04 12:53:22;;;;;;;;;;;;;;;5.86;100.00;96111.63;4986384;28;19921;-91
2023/11/04 12:55:54;;;;;;;;;;;;;;;5.73;100.00;96114.44;4986452;28;19933;-92
2023/11/04 12:58:19;;;;;;;;;;;;;;;5.88;100.00;96107.88;5006970;28;19922;-89
2023/11/04 13:00:45;;;;;;;;;;;;;;;5.82;100.00;96114.50;5004009;28;20036;-91
2023/11/04 13:03:12;;;;;;;;;;;;;;;5.64;100.00;96098.44;5005259;28;20028;-93
2023/11/04 13:05:37;;;;;;;;;;;;;;;5.74;100.00;96089.81;4986402;28;19921;-91
2023/11/04 13:08:04;;;;;;;;;;;;;;;5.68;100.00;96111.31;5004203;28;20016;-90
2023/11/04 13:10:32;;;;;;;;;;;;;;;5.70;100.00;96091.03;4998925;23;19930;-93
2023/11/04 13:12:57;;;;;;;;;;;;;;;5.67;100.00;96102.63;4983407;28;19933;-89
2023/11/04 13:15:24;;;;;;;;;;;;;;;5.60;100.00;96093.56;4981942;28;20467;-90
2023/11/04 13:17:53;;;;;;;;;;;;;;;5.64;100.00;96079.22;4988978;28;20389;-93
2023/11/04 13:20:23;;;;;;;;;;;;;;;5.57;100.00;96078.91;5002751;23;19997;-93
2023/11/04 13:22:49;;;;;;;;;;;;;;;5.46;100.00;96076.31;4976824;28;19933;-91
2023/11/04 13:25:14;;;;;;;;;;;;;;;5.60;100.00;96083.03;4955583;28;19922;-90
2023/11/04 13:27:40;;;;;;;;;;;;;;;5.42;100.00;96074.88;4956948;28;20053;-91
2023/11/04 13:30:05;;;;;;;;;;;;;;;5.49;100.00;96070.81;4974351;28;20366;-91
2023/11/04 13:32:36;;;;;;;;;;;;;;;5.48;100.00;96057.81;4976132;28;19922;-89
2023/11/04 13:35:01;;;;;;;;;;;;;;;5.49;100.00;96055.06;4977931;28;19933;-90
2023/11/04 13:37:26;;;;;;;;;;;;;;;5.39;100.00;96038.38;4979144;28;19922;-89
2023/11/04 13:39:52;;;;;;;;;;;;;;;5.35;100.00;96026.47;4972745;28;20020;-90
2023/11/04 13:42:17;;;;;;;;;;;;;;;5.39;100.00;96039.22;4974439;28;19922;-92
2023/11/04 13:44:42;;;;;;;;;;;;;;;5.55;100.00;96023.03;4974357;28;20000;-96
2023/11/04 13:47:08;;;;;;;;;;;;;;;5.55;100.00;96032.69;4975311;28;20042;-93
2023/11/04 13:49:33;;;;;;;;;;;;;;;5.49;100.00;96028.81;4957076;28;19922;-87
2023/11/04 13:51:59;;;;;;;;;;;;;;;5.30;100.00;96026.00;4990255;28;20357;-96
2023/11/04 13:54:24;;;;;;;;;;;;;;;5.38;100.00;96027.03;4994388;28;19972;-92
2023/11/04 13:56:49;;;;;;;;;;;;;;;5.34;100.00;96009.88;4993652;28;20396;-91
2023/11/04 13:59:14;;;;;;;;;;;;;;;5.31;100.00;96011.91;4993177;28;19925;-86
2023/11/04 14:01:43;;;;;;;;;;;;;;;5.37;100.00;96020.13;4993238;28;19917;-91
2023/11/04 14:04:08;;;;;;;;;;;;;;;5.23;100.00;96020.41;4992923;28;19922;-89
2023/11/04 14:06:34;;;;;;;;;;;;;;;5.32;100.00;96009.16;4975647;28;20391;-89
2023/11/04 14:09:01;;;;;;;;;;;;;;;5.33;100.00;95999.50;4993031;28;19925;-89
2023/11/04 14:11:27;;;;;;;;;;;;;;;5.30;100.00;96002.34;4990718;28;19917;-87
2023/11/04 14:13:52;;;;;;;;;;;;;;;5.24;100.00;96015.03;5008167;28;19972;-86
2023/11/04 14:16:17;;;;;;;;;;;;;;;5.20;100.00;96018.88;4992830;28;19925;-90
2023/11/04 14:18:43;;;;;;;;;;;;;;;5.24;100.00;96025.53;4992920;28;19929;-90
2023/11/04 14:21:09;;;;;;;;;;;;;;;5.34;100.00;96020.38;4992771;28;19989;-87
2023/11/04 14:23:40;;;;;;;;;;;;;;;5.28;100.00;95992.00;4993095;28;20339;-93
2023/11/04 14:26:06;;;;;;;;;;;;;;;5.30;100.00;95989.25;4991559;28;19922;-94
2023/11/04 14:28:40;;;;;;;;;;;;;;;6.03;100.00;95994.63;4993202;28;20384;-87
2023/11/04 14:31:14;;;;;;;;;;;;;;;6.55;100.00;96011.19;5007065;28;20052;-90
2023/11/04 14:33:40;;;;;;;;;;;;;;;6.87;100.00;96012.81;4992701;28;20012;-85
2023/11/04 14:36:20;;;;;;;;;;;;;;;7.12;100.00;96010.66;5007723;28;20384;-87
2023/11/04 14:38:45;;;;;;;;;;;;;;;7.25;100.00;95987.50;4992077;28;19944;-91
2023/11/04 14:41:14;;;;;;;;;;;;;;;7.43;100.00;95985.84;4973889;28;20373;-86
2023/11/04 14:43:40;;;;;;;;;;;;;;;7.68;100.00;96023.16;4992503;28;19918;-92
2023/11/04 14:46:07;;;;;;;;;;;;;;;7.73;100.00;96017.47;5007693;28;20383;-86
2023/11/04 14:48:33;;;;;;;;;;;;;;;7.77;100.00;96024.94;4992486;28;19918;-88
2023/11/04 14:50:58;;;;;;;;;;;;;;;7.80;100.00;95998.31;4974979;28;20016;-87
2023/11/04 14:53:27;;;;;;;;;;;;;;;7.88;100.00;95994.13;4992503;28;19926;-91
2023/11/04 14:55:53;;;;;;;;;;;;;;;8.04;100.00;95998.81;4991246;28;19964;-92
2023/11/04 14:58:19;;;;;;;;;;;;;;;8.22;100.00;96006.81;4974969;28;19922;-92
2023/11/04 15:00:45;;;;;;;;;;;;;;;8.17;100.00;96007.28;4993113;28;19924;-93
2023/11/04 15:03:28;;;;;;;;;;;;;;;8.21;100.00;96005.16;4992510;28;19925;-92
2023/11/04 15:06:02;;;;;;;;;;;;;;;8.27;100.00;96004.59;4992205;28;19918;-90
2023/11/04 15:08:27;;;;;;;;;;;;;;;8.31;100.00;95990.97;4991809;28;19922;-92
2023/11/04 15:10:55;;;;;;;;;;;;;;;8.37;100.00;95989.56;4990913;28;19965;-91
2023/11/04 15:13:23;;;;;;;;;;;;;;;8.45;100.00;95992.34;4992303;28;19925;-92
2023/11/04 15:15:51;;;;;;;;;;;;;;;8.53;100.00;95995.06;4974456;28;19932;-92
2023/11/04 15:18:16;;;;;;;;;;;;;;;8.60;100.00;95992.72;4992539;28;20001;-90
2023/11/04 15:20:43;;;;;;;;;;;;;;;8.60;100.00;95979.50;4992339;28;20400;-92
2023/11/04 15:23:08;;;;;;;;;;;;;;;8.67;100.00;95985.03;4994203;28;20320;-88
2023/11/04 15:25:36;;;;;;;;;;;;;;;8.74;100.00;95970.25;4977346;28;19918;-90
2023/11/04 15:28:02;;;;;;;;;;;;;;;8.75;100.00;95976.38;4996463;28;19925;-88
2023/11/04 15:30:30;;;;;;;;;;;;;;;8.80;100.00;95964.38;4978461;28;20395;-87
2023/11/04 15:32:55;;;;;;;;;;;;;;;8.83;100.00;95964.09;4978599;28;19918;-88
2023/11/04 15:35:21;;;;;;;;;;;;;;;8.79;100.00;95946.91;4995870;28;19940;-86
2023/11/04 15:37:46;;;;;;;;;;;;;;;7.70;100.00;95950.06;4995915;28;19917;-87
2023/11/04 15:40:11;;;;;;;;;;;;;;;7.24;100.00;95946.34;4994400;28;20364;-90
2023/11/04 15:42:37;;;;;;;;;;;;;;;6.93;100.00;95941.22;4995878;28;19928;-87
2023/11/04 15:45:11;;;;;;;;;;;;;;;6.82;100.00;95943.97;4995823;28;20336;-89
2023/11/04 15:47:36;;;;;;;;;;;;;;;6.65;100.00;95930.53;4995466;28;19917;-86
2023/11/04 15:50:02;;;;;;;;;;;;;;;6.65;100.00;95932.28;4995557;28;19925;-86
2023/11/04 15:52:28;;;;;;;;;;;;;;;6.47;100.00;95937.38;4995371;28;19924;-85
2023/11/04 15:54:53;;;;;;;;;;;;;;;6.40;100.00;95944.13;4994172;28;19925;-87
2023/11/04 15:57:21;;;;;;;;;;;;;;;6.36;100.00;95944.41;4978093;28;19972;-88
2023/11/04 15:59:53;;;;;;;;;;;;;;;6.20;100.00;95938.00;4995785;28;19956;-86
2023/11/04 16:02:19;;;;;;;;;;;;;;;6.12;100.00;95943.91;4995393;28;19921;-84
2023/11/04 16:04:44;;;;;;;;;;;;;;;6.15;100.00;95947.09;4995471;28;19929;-86
2023/11/04 16:07:20;;;;;;;;;;;;;;;6.20;100.00;95946.69;4995101;28;19925;-87
2023/11/04 16:09:45;;;;;;;;;;;;;;;6.11;100.00;95932.56;4994222;28;19922;-86
2023/11/04 16:12:11;;;;;;;;;;;;;;;6.09;100.00;95925.75;4977510;28;19973;-87
2023/11/04 16:14:36;;;;;;;;;;;;;;;5.98;100.00;95932.78;4977395;28;20361;-88
2023/11/04 16:17:01;;;;;;;;;;;;;;;5.96;100.00;95928.59;4995291;28;20357;-87
2023/11/04 16:19:27;;;;;;;;;;;;;;;5.94;100.00;95928.72;4995127;28;20017;-87
2023/11/04 16:21:52;;;;;;;;;;;;;;;5.82;100.00;95929.75;4995135;28;19922;-88
2023/11/04 16:24:18;;;;;;;;;;;;;;;5.88;100.00;95934.47;4995744;28;19918;-90
2023/11/04 16:26:43;;;;;;;;;;;;;;;5.92;100.00;95933.28;4994772;28;19921;-86
2023/11/04 16:29:10;;;;;;;;;;;;;;;5.83;100.00;95934.03;4996831;28;19940;-89
2023/11/04 16:31:36;;;;;;;;;;;;;;;5.82;100.00;95930.59;4999429;28;20284;-90
2023/11/04 16:34:03;;;;;;;;;;;;;;;5.75;100.00;95934.69;4976952;28;20013;-86
2023/11/04 16:36:29;;;;;;;;;;;;;;;5.74;100.00;95935.66;4995302;28;19918;-90
2023/11/04 16:38:55;;;;;;;;;;;;;;;5.73;100.00;95941.06;4977020;28;19918;-87
2023/11/04 16:41:25;;;;;;;;;;;;;;;5.70;100.00;95931.63;4994039;28;19918;-85
2023/11/04 16:43:55;;;;;;;;;;;;;;;5.76;100.00;95936.38;4977251;28;20005;-89
2023/11/04 16:46:20;;;;;;;;;;;;;;;5.78;100.00;95934.44;4994740;28;19918;-88
2023/11/04 16:48:45;;;;;;;;;;;;;;;5.83;100.00;95931.41;4994339;28;20379;-89
2023/11/04 16:51:11;;;;;;;;;;;;;;;5.68;100.00;95936.19;4993976;28;19922;-91
2023/11/04 16:53:36;;;;;;;;;;;;;;;5.70;100.00;95939.50;4993726;28;19925;-87
2023/11/04 16:56:01;;;;;;;;;;;;;;;5.83;100.00;95937.50;4993050;28;20377;-87
2023/11/04 16:58:27;;;;;;;;;;;;;;;5.70;100.00;95933.44;4994287;28;19940;-89
2023/11/04 17:01:02;;;;;;;;;;;;;;;5.72;100.00;95934.94;5009307;28;19944;-86
2023/11/04 17:03:28;;;;;;;;;;;;;;;5.66;100.00;95937.28;5009606;28;19921;-89
2023/11/04 17:05:54;;;;;;;;;;;;;;;5.59;100.00;95937.78;4993438;28;19918;-86
2023/11/04 17:08:22;;;;;;;;;;;;;;;5.62;100.00;95945.41;4993954;28;19918;-87
2023/11/04 17:10:48;;;;;;;;;;;;;;;5.62;100.00;95939.31;4992953;28;19925;-87
2023/11/04 17:13:13;;;;;;;;;;;;;;;5.66;100.00;95953.03;4993896;28;20338;-86
2023/11/04 17:15:41;;;;;;;;;;;;;;;5.56;100.00;95966.91;4994045;28;19918;-87
2023/11/04 17:18:45;;;;;;;;;;;;;;;5.55;100.00;95956.53;4993228;28;20008;-86
2023/11/04 17:21:10;;;;;;;;;;;;;;;5.69;100.00;95958.03;4989621;28;20016;-90
2023/11/04 17:23:36;;;;;;;;;;;;;;;5.70;100.00;95968.41;4994034;28;19968;-85
2023/11/04 17:26:03;;;;;;;;;;;;;;;5.71;100.00;95961.34;4992681;28;19929;-86
2023/11/04 17:28:28;;;;;;;;;;;;;;;5.60;100.00;95968.34;4993619;28;19922;-89
2023/11/04 17:30:54;;;;;;;;;;;;;;;5.56;100.00;95974.81;4993683;28;20312;-89
2023/11/04 17:33:24;;;;;;;;;;;;;;;5.50;100.00;95971.84;4993928;28;19922;-89
2023/11/04 17:35:49;;;;;;;;;;;;;;;5.54;100.00;95979.34;4993004;28;20061;-88
2023/11/04 17:38:15;;;;;;;;;;;;;;;5.51;100.00;95994.53;4993316;28;20024;-88
2023/11/04 17:40:40;;;;;;;;;;;;;;;5.55;100.00;95988.06;4991981;28;20358;-90
2023/11/04 17:43:06;;;;;;;;;;;;;;;5.46;100.00;95979.16;4993110;28;20055;-89
2023/11/04 17:45:32;;;;;;;;;;;;;;;5.60;100.00;95981.47;5008100;28;19928;-87
2023/11/04 17:47:58;;;;;;;;;;;;;;;5.45;100.00;95978.31;4992655;28;20269;-87
2023/11/04 17:50:31;;;;;;;;;;;;;;;5.46;100.00;95974.72;4993252;28;20392;-87
2023/11/04 17:52:57;;;;;;;;;;;;;;;5.61;100.00;95975.25;4993242;28;19918;-90
2023/11/04 17:55:23;;;;;;;;;;;;;;;5.61;100.00;95964.75;4992098;28;19918;-87
2023/11/04 17:58:20;;;;;;;;;;;;;;;5.58;100.00;95959.75;4974975;28;19957;-85
2023/11/04 18:00:45;;;;;;;;;;;;;;;5.48;100.00;95945.72;4932001;28;20370;-89
2023/11/04 18:03:10;;;;;;;;;;;;;;;5.55;100.00;95957.41;4993074;28;19925;-91
2023/11/04 18:05:35;;;;;;;;;;;;;;;5.51;100.00;95949.91;4975213;28;19918;-87
2023/11/04 18:08:02;;;;;;;;;;;;;;;5.47;100.00;95954.56;4975462;28;19928;-86
2023/11/04 18:10:27;;;;;;;;;;;;;;;5.50;100.00;95950.84;4991610;28;19918;-88
2023/11/04 18:12:53;;;;;;;;;;;;;;;5.57;100.00;95957.28;4993306;28;20356;-86
2023/11/04 18:15:18;;;;;;;;;;;;;;;5.41;100.00;95942.78;5008158;28;20012;-88
2023/11/04 18:17:46;;;;;;;;;;;;;;;5.45;100.00;95941.56;4992824;28;19921;-87
2023/11/04 18:20:11;;;;;;;;;;;;;;;5.59;100.00;95929.91;4992216;28;20454;-91
2023/11/04 18:22:38;;;;;;;;;;;;;;;5.49;100.00;95921.16;4992894;28;19957;-91
2023/11/04 18:25:03;;;;;;;;;;;;;;;5.41;100.00;95920.97;4974073;28;19921;-87
2023/11/04 18:27:29;;;;;;;;;;;;;;;5.40;100.00;95919.28;4992757;28;19965;-89